sensor_id;sensor_type;location;lat;lon;timestamp;pressure;altitude;pressure_sealevel;temperature;humidity
48200;BME280;33990;44.602;10.976;2023-09-19T00:00:47;100702.09;;;25.00;70.84
48200;BME280;33990;44.602;10.976;2023-09-19T00:03:16;100700.22;;;25.00;70.77
48200;BME280;33990;44.602;10.976;2023-09-19T00:05:44;100701.06;;;25.01;70.96
48200;BME280;33990;44.602;10.976;2023-09-19T00:08:13;100701.91;;;25.01;70.80
48200;BME280;33990;44.602;10.976;2023-09-19T00:10:46;100699.22;;;25.01;70.94
48200;BME280;33990;44.602;10.976;2023-09-19T00:17:52;100688.38;;;25.01;70.96
48200;BME280;33990;44.602;10.976;2023-09-19T00:20:19;100695.47;;;25.02;70.96
48200;BME280;33990;44.602;10.976;2023-09-19T00:22:51;100700.03;;;25.02;70.74
48200;BME280;33990;44.602;10.976;2023-09-19T00:25:20;100702.56;;;25.03;70.94
48200;BME280;33990;44.602;10.976;2023-09-19T00:27:48;100703.59;;;25.02;71.05
48200;BME280;33990;44.602;10.976;2023-09-19T00:30:18;100698.03;;;25.04;70.85
48200;BME280;33990;44.602;10.976;2023-09-19T00:32:49;100696.31;;;25.03;70.96
48200;BME280;33990;44.602;10.976;2023-09-19T00:35:21;100697.34;;;25.02;70.88
48200;BME280;33990;44.602;10.976;2023-09-19T00:37:53;100704.63;;;25.01;70.88
48200;BME280;33990;44.602;10.976;2023-09-19T00:40:21;100709.84;;;25.03;70.73
48200;BME280;33990;44.602;10.976;2023-09-19T00:42:49;100712.56;;;25.03;70.84
48200;BME280;33990;44.602;10.976;2023-09-19T00:45:17;100716.13;;;25.03;70.74
48200;BME280;33990;44.602;10.976;2023-09-19T00:47:47;100710.69;;;25.03;70.75
48200;BME280;33990;44.602;10.976;2023-09-19T00:50:22;100714.28;;;25.04;70.69
48200;BME280;33990;44.602;10.976;2023-09-19T00:52:52;100710.53;;;25.05;70.95
48200;BME280;33990;44.602;10.976;2023-09-19T00:55:20;100714.28;;;25.04;70.94
48200;BME280;33990;44.602;10.976;2023-09-19T00:57:48;100704.28;;;25.04;70.77
48200;BME280;33990;44.602;10.976;2023-09-19T01:00:18;100711.56;;;25.04;70.94
48200;BME280;33990;44.602;10.976;2023-09-19T01:02:47;100704.28;;;25.04;70.74
48200;BME280;33990;44.602;10.976;2023-09-19T01:05:16;100702.56;;;25.03;70.87
48200;BME280;33990;44.602;10.976;2023-09-19T01:12:22;100703.44;;;25.04;70.55
48200;BME280;33990;44.602;10.976;2023-09-19T01:14:56;100711.56;;;25.04;70.58
48200;BME280;33990;44.602;10.976;2023-09-19T01:17:32;100717.00;;;25.04;70.47
48200;BME280;33990;44.602;10.976;2023-09-19T01:20:03;100717.81;;;25.04;70.65
48200;BME280;33990;44.602;10.976;2023-09-19T01:22:47;100722.41;;;25.04;70.60
48200;BME280;33990;44.602;10.976;2023-09-19T01:25:45;100717.00;;;25.04;70.59
48200;BME280;33990;44.602;10.976;2023-09-19T01:31:11;100728.66;;;25.04;70.69
48200;BME280;33990;44.602;10.976;2023-09-19T01:33:59;100714.94;;;25.06;70.49
48200;BME280;33990;44.602;10.976;2023-09-19T01:36:29;100710.53;;;25.05;70.35
48200;BME280;33990;44.602;10.976;2023-09-19T01:38:57;100707.00;;;25.04;70.08
48200;BME280;33990;44.602;10.976;2023-09-19T01:41:39;100707.00;;;25.04;70.07
48200;BME280;33990;44.602;10.976;2023-09-19T01:44:11;100712.41;;;25.04;70.04
48200;BME280;33990;44.602;10.976;2023-09-19T01:46:41;100709.69;;;25.04;70.12
48200;BME280;33990;44.602;10.976;2023-09-19T01:49:27;100716.81;;;25.05;70.28
48200;BME280;33990;44.602;10.976;2023-09-19T01:52:14;100711.38;;;25.05;70.24
48200;BME280;33990;44.602;10.976;2023-09-19T01:54:51;100710.34;;;25.06;70.20
48200;BME280;33990;44.602;10.976;2023-09-19T01:57:27;100711.38;;;25.05;70.29
48200;BME280;33990;44.602;10.976;2023-09-19T02:00:02;100700.38;;;25.07;70.35
48200;BME280;33990;44.602;10.976;2023-09-19T02:02:43;100708.50;;;25.07;70.20
48200;BME280;33990;44.602;10.976;2023-09-19T02:05:12;100701.38;;;25.06;69.90
48200;BME280;33990;44.602;10.976;2023-09-19T02:07:40;100695.13;;;25.05;69.31
48200;BME280;33990;44.602;10.976;2023-09-19T02:10:07;100689.72;;;25.05;68.62
48200;BME280;33990;44.602;10.976;2023-09-19T02:12:37;100693.25;;;25.06;68.59
48200;BME280;33990;44.602;10.976;2023-09-19T02:15:05;100692.44;;;25.05;68.60
48200;BME280;33990;44.602;10.976;2023-09-19T02:17:34;100696.81;;;25.06;68.81
48200;BME280;33990;44.602;10.976;2023-09-19T02:20:02;100688.69;;;25.06;68.80
48200;BME280;33990;44.602;10.976;2023-09-19T02:22:37;100697.66;;;25.07;68.80
48200;BME280;33990;44.602;10.976;2023-09-19T02:25:06;100704.09;;;25.06;67.99
48200;BME280;33990;44.602;10.976;2023-09-19T02:27:36;100698.69;;;25.06;67.36
48200;BME280;33990;44.602;10.976;2023-09-19T02:30:05;100695.13;;;25.05;66.99
48200;BME280;33990;44.602;10.976;2023-09-19T02:32:33;100688.69;;;25.06;66.91
48200;BME280;33990;44.602;10.976;2023-09-19T02:35:05;100691.41;;;25.06;66.94
48200;BME280;33990;44.602;10.976;2023-09-19T02:37:32;100688.69;;;25.06;67.16
48200;BME280;33990;44.602;10.976;2023-09-19T02:40:00;100693.09;;;25.07;66.78
48200;BME280;33990;44.602;10.976;2023-09-19T02:42:28;100681.41;;;25.07;66.88
48200;BME280;33990;44.602;10.976;2023-09-19T02:44:55;100687.66;;;25.07;66.98
48200;BME280;33990;44.602;10.976;2023-09-19T02:47:24;100686.81;;;25.07;67.06
48200;BME280;33990;44.602;10.976;2023-09-19T02:49:51;100682.25;;;25.07;67.26
48200;BME280;33990;44.602;10.976;2023-09-19T02:52:19;100678.53;;;25.08;67.62
48200;BME280;33990;44.602;10.976;2023-09-19T02:54:46;100674.13;;;25.07;67.76
48200;BME280;33990;44.602;10.976;2023-09-19T02:57:14;100678.53;;;25.08;68.08
48200;BME280;33990;44.602;10.976;2023-09-19T02:59:43;100685.69;;;25.09;68.16
48200;BME280;33990;44.602;10.976;2023-09-19T03:02:11;100683.97;;;25.08;67.84
48200;BME280;33990;44.602;10.976;2023-09-19T03:04:39;100680.41;;;25.08;68.09
48200;BME280;33990;44.602;10.976;2023-09-19T03:07:06;100683.97;;;25.08;67.77
48200;BME280;33990;44.602;10.976;2023-09-19T03:09:33;100682.13;;;25.09;67.70
48200;BME280;33990;44.602;10.976;2023-09-19T03:12:01;100683.13;;;25.08;67.49
48200;BME280;33990;44.602;10.976;2023-09-19T03:14:29;100687.66;;;25.07;67.32
48200;BME280;33990;44.602;10.976;2023-09-19T03:16:58;100683.28;;;25.06;66.79
48200;BME280;33990;44.602;10.976;2023-09-19T03:19:27;100691.59;;;25.05;66.12
48200;BME280;33990;44.602;10.976;2023-09-19T03:21:56;100689.03;;;25.03;65.50
48200;BME280;33990;44.602;10.976;2023-09-19T03:24:25;100681.94;;;25.02;65.31
48200;BME280;33990;44.602;10.976;2023-09-19T03:26:53;100674.84;;;25.01;64.96
48200;BME280;33990;44.602;10.976;2023-09-19T03:29:21;100674.84;;;25.01;64.38
48200;BME280;33990;44.602;10.976;2023-09-19T03:31:49;100678.56;;;25.00;64.57
48200;BME280;33990;44.602;10.976;2023-09-19T03:34:17;100685.84;;;25.00;64.42
48200;BME280;33990;44.602;10.976;2023-09-19T03:36:44;100686.84;;;24.99;64.30
48200;BME280;33990;44.602;10.976;2023-09-19T03:39:12;100689.56;;;24.99;64.40
48200;BME280;33990;44.602;10.976;2023-09-19T03:41:39;100694.97;;;24.99;64.20
48200;BME280;33990;44.602;10.976;2023-09-19T03:44:07;100698.69;;;24.98;63.96
48200;BME280;33990;44.602;10.976;2023-09-19T03:46:35;100699.72;;;24.97;63.47
48200;BME280;33990;44.602;10.976;2023-09-19T03:49:03;100698.03;;;24.96;63.40
48200;BME280;33990;44.602;10.976;2023-09-19T03:51:30;100697.16;;;24.95;63.47
48200;BME280;33990;44.602;10.976;2023-09-19T03:53:58;100692.78;;;24.94;63.56
48200;BME280;33990;44.602;10.976;2023-09-19T03:56:26;100685.69;;;24.93;63.47
48200;BME280;33990;44.602;10.976;2023-09-19T03:58:55;100688.19;;;24.95;63.63
48200;BME280;33990;44.602;10.976;2023-09-19T04:01:23;100686.53;;;24.94;63.25
48200;BME280;33990;44.602;10.976;2023-09-19T04:03:50;100681.28;;;24.92;63.10
48200;BME280;33990;44.602;10.976;2023-09-19T04:06:20;100685.00;;;24.91;63.31
48200;BME280;33990;44.602;10.976;2023-09-19T04:08:48;100690.41;;;24.91;63.30
48200;BME280;33990;44.602;10.976;2023-09-19T04:11:15;100691.28;;;24.91;63.27
48200;BME280;33990;44.602;10.976;2023-09-19T04:13:44;100693.31;;;24.89;62.95
48200;BME280;33990;44.602;10.976;2023-09-19T04:16:11;100692.47;;;24.89;63.02
48200;BME280;33990;44.602;10.976;2023-09-19T04:18:39;100696.84;;;24.90;62.90
48200;BME280;33990;44.602;10.976;2023-09-19T04:21:08;100696.84;;;24.90;62.98
48200;BME280;33990;44.602;10.976;2023-09-19T04:23:35;100704.97;;;24.90;62.93
48200;BME280;33990;44.602;10.976;2023-09-19T04:26:03;100709.53;;;24.89;62.88
48200;BME280;33990;44.602;10.976;2023-09-19T04:28:34;100719.53;;;24.89;62.80
48200;BME280;33990;44.602;10.976;2023-09-19T04:31:05;100714.97;;;24.89;62.79
48200;BME280;33990;44.602;10.976;2023-09-19T04:33:35;100712.44;;;24.88;62.74
48200;BME280;33990;44.602;10.976;2023-09-19T04:36:03;100721.41;;;24.88;62.83
48200;BME280;33990;44.602;10.976;2023-09-19T04:38:52;100717.84;;;24.88;62.66
48200;BME280;33990;44.602;10.976;2023-09-19T04:41:20;100712.44;;;24.88;62.88
48200;BME280;33990;44.602;10.976;2023-09-19T04:43:49;100717.00;;;24.87;62.98
48200;BME280;33990;44.602;10.976;2023-09-19T04:46:18;100701.59;;;24.88;62.82
48200;BME280;33990;44.602;10.976;2023-09-19T04:48:45;100699.06;;;24.86;62.99
48200;BME280;33990;44.602;10.976;2023-09-19T04:51:12;100700.75;;;24.87;62.87
48200;BME280;33990;44.602;10.976;2023-09-19T04:53:40;100696.19;;;24.88;62.68
48200;BME280;33990;44.602;10.976;2023-09-19T04:56:08;100699.06;;;24.86;62.54
48200;BME280;33990;44.602;10.976;2023-09-19T04:58:35;100707.19;;;24.86;62.45
48200;BME280;33990;44.602;10.976;2023-09-19T05:01:02;100704.47;;;24.86;62.60
48200;BME280;33990;44.602;10.976;2023-09-19T05:03:30;100701.75;;;24.86;62.39
48200;BME280;33990;44.602;10.976;2023-09-19T05:05:58;100705.50;;;24.85;62.20
48200;BME280;33990;44.602;10.976;2023-09-19T05:08:25;100709.03;;;24.86;62.16
48200;BME280;33990;44.602;10.976;2023-09-19T05:10:52;100705.50;;;24.85;62.08
48200;BME280;33990;44.602;10.976;2023-09-19T05:13:20;100701.09;;;24.84;62.11
48200;BME280;33990;44.602;10.976;2023-09-19T05:15:47;100713.63;;;24.85;61.94
48200;BME280;33990;44.602;10.976;2023-09-19T05:18:14;100722.75;;;24.84;62.34
48200;BME280;33990;44.602;10.976;2023-09-19T05:20:42;100726.50;;;24.83;62.35
48200;BME280;33990;44.602;10.976;2023-09-19T05:23:10;100719.03;;;24.85;62.43
48200;BME280;33990;44.602;10.976;2023-09-19T05:25:40;100730.88;;;24.84;62.27
48200;BME280;33990;44.602;10.976;2023-09-19T05:28:09;100724.63;;;24.84;61.94
48200;BME280;33990;44.602;10.976;2023-09-19T05:30:38;100733.59;;;24.84;61.91
48200;BME280;33990;44.602;10.976;2023-09-19T05:33:07;100731.72;;;24.85;61.82
48200;BME280;33990;44.602;10.976;2023-09-19T05:35:36;100730.03;;;24.84;61.70
48200;BME280;33990;44.602;10.976;2023-09-19T05:38:09;100733.94;;;24.81;61.84
48200;BME280;33990;44.602;10.976;2023-09-19T05:40:37;100735.59;;;24.82;61.62
48200;BME280;33990;44.602;10.976;2023-09-19T05:43:06;100744.75;;;24.81;61.54
48200;BME280;33990;44.602;10.976;2023-09-19T05:45:34;100743.91;;;24.81;61.60
48200;BME280;33990;44.602;10.976;2023-09-19T05:48:14;100745.78;;;24.80;61.62
48200;BME280;33990;44.602;10.976;2023-09-19T05:50:44;100752.03;;;24.81;61.51
48200;BME280;33990;44.602;10.976;2023-09-19T05:53:14;100771.84;;;24.81;61.84
48200;BME280;33990;44.602;10.976;2023-09-19T05:55:42;100769.97;;;24.82;61.86
48200;BME280;33990;44.602;10.976;2023-09-19T05:58:10;100785.19;;;24.83;62.05
48200;BME280;33990;44.602;10.976;2023-09-19T06:00:41;100782.47;;;24.83;61.75
48200;BME280;33990;44.602;10.976;2023-09-19T06:03:10;100790.28;;;24.86;61.63
48200;BME280;33990;44.602;10.976;2023-09-19T06:05:40;100791.13;;;24.86;61.74
48200;BME280;33990;44.602;10.976;2023-09-19T06:08:10;100793.81;;;24.86;61.86
48200;BME280;33990;44.602;10.976;2023-09-19T06:10:37;100795.53;;;24.87;61.87
48200;BME280;33990;44.602;10.976;2023-09-19T06:13:05;100789.94;;;24.89;61.86
48200;BME280;33990;44.602;10.976;2023-09-19T06:15:33;100797.22;;;24.88;61.85
48200;BME280;33990;44.602;10.976;2023-09-19T06:18:03;100794.34;;;24.90;62.02
48200;BME280;33990;44.602;10.976;2023-09-19T06:20:33;100800.59;;;24.90;61.76
48200;BME280;33990;44.602;10.976;2023-09-19T06:23:02;100802.97;;;24.94;61.78
48200;BME280;33990;44.602;10.976;2023-09-19T06:25:30;100813.81;;;24.94;61.88
48200;BME280;33990;44.602;10.976;2023-09-19T06:27:57;100805.50;;;24.95;61.95
48200;BME280;33990;44.602;10.976;2023-09-19T06:30:25;100808.06;;;24.97;61.86
48200;BME280;33990;44.602;10.976;2023-09-19T06:32:57;100813.16;;;25.00;62.04
48200;BME280;33990;44.602;10.976;2023-09-19T06:35:25;100812.13;;;25.01;61.91
48200;BME280;33990;44.602;10.976;2023-09-19T06:37:53;100809.41;;;25.01;61.94
48200;BME280;33990;44.602;10.976;2023-09-19T06:40:21;100809.22;;;25.02;61.88
48200;BME280;33990;44.602;10.976;2023-09-19T06:42:52;100811.94;;;25.02;61.56
48200;BME280;33990;44.602;10.976;2023-09-19T06:45:23;100816.69;;;25.00;61.33
48200;BME280;33990;44.602;10.976;2023-09-19T06:47:54;100828.53;;;24.99;61.44
48200;BME280;33990;44.602;10.976;2023-09-19T06:50:26;100826.00;;;24.98;61.49
48200;BME280;33990;44.602;10.976;2023-09-19T06:52:55;100833.94;;;24.99;61.39
48200;BME280;33990;44.602;10.976;2023-09-19T06:55:25;100846.50;;;25.00;61.67
48200;BME280;33990;44.602;10.976;2023-09-19T06:57:56;100840.03;;;25.01;61.72
48200;BME280;33990;44.602;10.976;2023-09-19T07:00:24;100843.41;;;25.03;61.81
48200;BME280;33990;44.602;10.976;2023-09-19T07:03:06;100845.78;;;25.06;61.92
48200;BME280;33990;44.602;10.976;2023-09-19T07:05:35;100846.50;;;25.08;61.93
48200;BME280;33990;44.602;10.976;2023-09-19T07:08:07;100843.63;;;25.10;62.12
48200;BME280;33990;44.602;10.976;2023-09-19T07:10:39;100842.59;;;25.11;61.99
48200;BME280;33990;44.602;10.976;2023-09-19T07:13:16;100849.75;;;25.12;62.04
48200;BME280;33990;44.602;10.976;2023-09-19T07:15:46;100856.84;;;25.13;62.03
48200;BME280;33990;44.602;10.976;2023-09-19T07:18:15;100858.72;;;25.12;62.07
48200;BME280;33990;44.602;10.976;2023-09-19T07:20:47;100861.06;;;25.15;62.06
48200;BME280;33990;44.602;10.976;2023-09-19T07:23:18;100856.50;;;25.16;62.17
48200;BME280;33990;44.602;10.976;2023-09-19T07:25:45;100848.19;;;25.18;62.19
48200;BME280;33990;44.602;10.976;2023-09-19T07:28:13;100850.91;;;25.18;62.09
48200;BME280;33990;44.602;10.976;2023-09-19T07:30:41;100866.16;;;25.19;62.00
48200;BME280;33990;44.602;10.976;2023-09-19T07:33:08;100857.00;;;25.20;62.05
48200;BME280;33990;44.602;10.976;2023-09-19T07:35:38;100861.41;;;25.21;62.14
48200;BME280;33990;44.602;10.976;2023-09-19T07:38:08;100859.56;;;25.21;62.11
48200;BME280;33990;44.602;10.976;2023-09-19T07:40:39;100869.53;;;25.21;61.89
48200;BME280;33990;44.602;10.976;2023-09-19T07:43:06;100874.59;;;25.15;61.78
48200;BME280;33990;44.602;10.976;2023-09-19T07:45:34;100875.97;;;25.11;61.95
48200;BME280;33990;44.602;10.976;2023-09-19T07:48:03;100881.69;;;25.08;61.87
48200;BME280;33990;44.602;10.976;2023-09-19T07:50:34;100887.28;;;25.07;62.30
48200;BME280;33990;44.602;10.976;2023-09-19T07:53:04;100886.41;;;24.98;62.42
48200;BME280;33990;44.602;10.976;2023-09-19T07:55:32;100878.63;;;24.95;62.52
48200;BME280;33990;44.602;10.976;2023-09-19T07:58:01;100875.25;;;24.93;62.91
48200;BME280;33990;44.602;10.976;2023-09-19T08:00:31;100881.00;;;24.90;62.91
48200;BME280;33990;44.602;10.976;2023-09-19T08:03:02;100881.16;;;24.88;62.90
48200;BME280;33990;44.602;10.976;2023-09-19T08:05:43;100889.63;;;24.85;63.01
48200;BME280;33990;44.602;10.976;2023-09-19T08:08:11;100882.53;;;24.84;63.45
48200;BME280;33990;44.602;10.976;2023-09-19T08:10:43;100885.91;;;24.86;63.55
48200;BME280;33990;44.602;10.976;2023-09-19T08:13:13;100883.19;;;24.86;63.39
48200;BME280;33990;44.602;10.976;2023-09-19T08:15:45;100881.31;;;24.87;63.59
48200;BME280;33990;44.602;10.976;2023-09-19T08:18:14;100875.25;;;24.85;64.05
48200;BME280;33990;44.602;10.976;2023-09-19T08:20:42;100877.25;;;24.83;63.86
48200;BME280;33990;44.602;10.976;2023-09-19T08:23:09;100878.47;;;24.80;63.83
48200;BME280;33990;44.602;10.976;2023-09-19T08:25:37;100879.28;;;24.81;63.70
48200;BME280;33990;44.602;10.976;2023-09-19T08:28:07;100882.00;;;24.81;63.81
48200;BME280;33990;44.602;10.976;2023-09-19T08:30:41;100874.72;;;24.81;63.88
48200;BME280;33990;44.602;10.976;2023-09-19T08:33:08;100877.94;;;24.85;63.93
48200;BME280;33990;44.602;10.976;2023-09-19T08:35:36;100877.78;;;24.86;63.97
48200;BME280;33990;44.602;10.976;2023-09-19T08:38:05;100872.03;;;24.89;63.91
48200;BME280;33990;44.602;10.976;2023-09-19T08:40:37;100875.75;;;24.88;64.02
48200;BME280;33990;44.602;10.976;2023-09-19T08:43:07;100874.91;;;24.88;63.82
48200;BME280;33990;44.602;10.976;2023-09-19T08:45:35;100866.78;;;24.88;63.80
48200;BME280;33990;44.602;10.976;2023-09-19T08:51:07;100873.06;;;24.88;63.99
48200;BME280;33990;44.602;10.976;2023-09-19T08:53:47;100886.41;;;24.90;64.11
48200;BME280;33990;44.602;10.976;2023-09-19T08:56:18;100875.44;;;24.91;64.21
48200;BME280;33990;44.602;10.976;2023-09-19T08:59:07;100879.66;;;24.94;63.95
48200;BME280;33990;44.602;10.976;2023-09-19T09:01:35;100875.75;;;24.97;63.82
48200;BME280;33990;44.602;10.976;2023-09-19T09:04:06;100875.44;;;25.00;63.69
48200;BME280;33990;44.602;10.976;2023-09-19T09:06:36;100874.41;;;25.01;63.61
48200;BME280;33990;44.602;10.976;2023-09-19T09:09:03;100872.22;;;25.04;63.53
48200;BME280;33990;44.602;10.976;2023-09-19T09:11:33;100862.38;;;25.03;63.17
48200;BME280;33990;44.602;10.976;2023-09-19T09:14:00;100863.25;;;25.04;63.35
48200;BME280;33990;44.602;10.976;2023-09-19T09:16:29;100859.34;;;25.06;63.31
48200;BME280;33990;44.602;10.976;2023-09-19T09:18:57;100848.34;;;25.08;63.54
48200;BME280;33990;44.602;10.976;2023-09-19T09:21:25;100852.91;;;25.07;63.47
48200;BME280;33990;44.602;10.976;2023-09-19T09:23:52;100857.31;;;25.08;63.79
48200;BME280;33990;44.602;10.976;2023-09-19T09:26:44;100869.88;;;25.09;63.76
48200;BME280;33990;44.602;10.976;2023-09-19T09:29:11;100863.44;;;25.10;63.94
48200;BME280;33990;44.602;10.976;2023-09-19T09:31:42;100861.75;;;25.09;63.72
48200;BME280;33990;44.602;10.976;2023-09-19T09:34:10;100872.41;;;25.11;63.54
48200;BME280;33990;44.602;10.976;2023-09-19T09:36:40;100859.69;;;25.11;63.50
48200;BME280;33990;44.602;10.976;2023-09-19T09:39:09;100858.72;;;25.12;63.47
48200;BME280;33990;44.602;10.976;2023-09-19T09:41:46;100863.09;;;25.13;63.29
48200;BME280;33990;44.602;10.976;2023-09-19T09:44:17;100857.50;;;25.15;63.26
48200;BME280;33990;44.602;10.976;2023-09-19T09:46:47;100859.38;;;25.14;63.09
48200;BME280;33990;44.602;10.976;2023-09-19T09:49:25;100853.81;;;25.16;63.01
48200;BME280;33990;44.602;10.976;2023-09-19T09:52:03;100846.53;;;25.17;62.85
48200;BME280;33990;44.602;10.976;2023-09-19T09:55:00;100851.94;;;25.17;62.42
48200;BME280;33990;44.602;10.976;2023-09-19T09:57:28;100853.63;;;25.18;62.58
48200;BME280;33990;44.602;10.976;2023-09-19T09:59:59;100850.72;;;25.19;62.53
48200;BME280;33990;44.602;10.976;2023-09-19T10:02:39;100851.56;;;25.20;62.35
48200;BME280;33990;44.602;10.976;2023-09-19T10:05:13;100854.97;;;25.22;62.60
48200;BME280;33990;44.602;10.976;2023-09-19T10:07:51;100854.78;;;25.23;63.01
48200;BME280;33990;44.602;10.976;2023-09-19T10:10:30;100852.94;;;25.24;63.30
48200;BME280;33990;44.602;10.976;2023-09-19T10:13:05;100851.94;;;25.25;63.35
48200;BME280;33990;44.602;10.976;2023-09-19T10:15:36;100853.44;;;25.27;63.26
48200;BME280;33990;44.602;10.976;2023-09-19T10:18:05;100847.03;;;25.28;63.19
48200;BME280;33990;44.602;10.976;2023-09-19T10:20:37;100850.56;;;25.29;63.09
48200;BME280;33990;44.602;10.976;2023-09-19T10:23:10;100849.56;;;25.30;63.17
48200;BME280;33990;44.602;10.976;2023-09-19T10:25:40;100841.25;;;25.31;63.30
48200;BME280;33990;44.602;10.976;2023-09-19T10:28:13;100842.94;;;25.32;63.36
48200;BME280;33990;44.602;10.976;2023-09-19T10:30:46;100839.38;;;25.32;63.50
48200;BME280;33990;44.602;10.976;2023-09-19T10:33:18;100839.22;;;25.33;63.45
48200;BME280;33990;44.602;10.976;2023-09-19T10:35:50;100853.28;;;25.37;63.75
48200;BME280;33990;44.602;10.976;2023-09-19T10:38:25;100844.13;;;25.38;63.67
48200;BME280;33990;44.602;10.976;2023-09-19T10:40:54;100846.66;;;25.39;63.62
48200;BME280;33990;44.602;10.976;2023-09-19T10:43:26;100841.06;;;25.41;63.54
48200;BME280;33990;44.602;10.976;2023-09-19T10:46:02;100841.06;;;25.41;63.60
48200;BME280;33990;44.602;10.976;2023-09-19T10:48:33;100834.63;;;25.42;63.43
48200;BME280;33990;44.602;10.976;2023-09-19T10:53:29;100835.28;;;25.44;63.89
48200;BME280;33990;44.602;10.976;2023-09-19T10:56:01;100837.00;;;25.45;63.67
48200;BME280;33990;44.602;10.976;2023-09-19T10:58:36;100838.69;;;25.46;63.36
48200;BME280;33990;44.602;10.976;2023-09-19T11:01:07;100822.25;;;25.48;63.39
48200;BME280;33990;44.602;10.976;2023-09-19T11:03:39;100824.78;;;25.49;63.42
48200;BME280;33990;44.602;10.976;2023-09-19T11:06:13;100821.75;;;25.52;63.65
48200;BME280;33990;44.602;10.976;2023-09-19T11:11:43;100826.16;;;25.53;63.62
48200;BME280;33990;44.602;10.976;2023-09-19T11:30:49;100809.53;;;25.56;62.85
48200;BME280;33990;44.602;10.976;2023-09-19T11:33:20;100808.66;;;25.56;62.95
48200;BME280;33990;44.602;10.976;2023-09-19T11:43:49;100814.59;;;25.59;63.02
48200;BME280;33990;44.602;10.976;2023-09-19T11:46:23;100818.16;;;25.60;63.10
48200;BME280;33990;44.602;10.976;2023-09-19T11:48:51;100818.00;;;25.61;63.21
48200;BME280;33990;44.602;10.976;2023-09-19T11:51:23;100807.31;;;25.60;63.08
48200;BME280;33990;44.602;10.976;2023-09-19T11:53:55;100810.88;;;25.60;63.24
48200;BME280;33990;44.602;10.976;2023-09-19T11:56:24;100801.72;;;25.61;62.93
48200;BME280;33990;44.602;10.976;2023-09-19T11:58:54;100803.41;;;25.62;62.94
48200;BME280;33990;44.602;10.976;2023-09-19T12:01:31;100804.25;;;25.63;62.54
48200;BME280;33990;44.602;10.976;2023-09-19T12:04:01;100797.97;;;25.62;62.44
48200;BME280;33990;44.602;10.976;2023-09-19T12:06:31;100797.66;;;25.65;62.27
48200;BME280;33990;44.602;10.976;2023-09-19T12:09:02;100793.25;;;25.64;62.25
48200;BME280;33990;44.602;10.976;2023-09-19T12:11:41;100795.97;;;25.64;62.28
48200;BME280;33990;44.602;10.976;2023-09-19T12:14:09;100790.53;;;25.64;62.43
48200;BME280;33990;44.602;10.976;2023-09-19T12:16:37;100789.66;;;25.64;62.22
48200;BME280;33990;44.602;10.976;2023-09-19T12:19:19;100780.53;;;25.65;62.20
48200;BME280;33990;44.602;10.976;2023-09-19T12:21:59;100778.66;;;25.65;62.10
48200;BME280;33990;44.602;10.976;2023-09-19T12:24:32;100781.38;;;25.65;62.09
48200;BME280;33990;44.602;10.976;2023-09-19T12:27:03;100781.38;;;25.65;61.93
48200;BME280;33990;44.602;10.976;2023-09-19T12:29:47;100780.34;;;25.67;61.95
48200;BME280;33990;44.602;10.976;2023-09-19T12:32:33;100777.28;;;25.70;61.54
48200;BME280;33990;44.602;10.976;2023-09-19T12:35:01;100782.72;;;25.70;61.14
48200;BME280;33990;44.602;10.976;2023-09-19T12:37:34;100769.81;;;25.72;61.26
48200;BME280;33990;44.602;10.976;2023-09-19T12:40:08;100776.94;;;25.73;61.08
48200;BME280;33990;44.602;10.976;2023-09-19T12:42:45;100774.25;;;25.73;61.11
48200;BME280;33990;44.602;10.976;2023-09-19T12:45:14;100774.06;;;25.74;61.10
48200;BME280;33990;44.602;10.976;2023-09-19T12:48:23;100770.31;;;25.75;60.89
48200;BME280;33990;44.602;10.976;2023-09-19T12:51:10;100768.44;;;25.76;60.77
48200;BME280;33990;44.602;10.976;2023-09-19T12:53:42;100760.31;;;25.76;60.84
48200;BME280;33990;44.602;10.976;2023-09-19T12:56:13;100762.03;;;25.77;61.01
48200;BME280;33990;44.602;10.976;2023-09-19T12:58:54;100766.44;;;25.78;60.87
48200;BME280;33990;44.602;10.976;2023-09-19T13:01:23;100758.31;;;25.78;60.75
48200;BME280;33990;44.602;10.976;2023-09-19T13:04:14;100760.00;;;25.79;60.71
48200;BME280;33990;44.602;10.976;2023-09-19T13:06:52;100761.34;;;25.83;60.08
48200;BME280;33990;44.602;10.976;2023-09-19T13:09:21;100756.75;;;25.83;60.03
48200;BME280;33990;44.602;10.976;2023-09-19T13:11:49;100750.47;;;25.83;59.96
48200;BME280;33990;44.602;10.976;2023-09-19T13:14:23;100753.19;;;25.83;60.08
48200;BME280;33990;44.602;10.976;2023-09-19T13:17:05;100741.69;;;25.81;60.12
48200;BME280;33990;44.602;10.976;2023-09-19T13:19:48;100745.41;;;25.80;60.28
48200;BME280;33990;44.602;10.976;2023-09-19T13:22:43;100745.41;;;25.80;60.39
48200;BME280;33990;44.602;10.976;2023-09-19T13:25:17;100749.84;;;25.81;60.37
48200;BME280;33990;44.602;10.976;2023-09-19T13:27:49;100745.91;;;25.83;60.36
48200;BME280;33990;44.602;10.976;2023-09-19T13:30:23;100747.59;;;25.84;60.30
48200;BME280;33990;44.602;10.976;2023-09-19T13:32:53;100760.16;;;25.85;60.22
48200;BME280;33990;44.602;10.976;2023-09-19T13:35:31;100749.09;;;25.87;60.12
48200;BME280;33990;44.602;10.976;2023-09-19T13:37:59;100752.13;;;25.92;59.69
48200;BME280;33990;44.602;10.976;2023-09-19T13:40:28;100756.56;;;25.93;59.70
48200;BME280;33990;44.602;10.976;2023-09-19T13:42:59;100755.53;;;25.94;59.54
48200;BME280;33990;44.602;10.976;2023-09-19T13:45:26;100755.34;;;25.96;59.09